createdAt,value
2022-10-11T00:01:32.821Z,17.98
2022-10-11T00:04:36.082Z,15.68
2022-10-11T00:07:40.719Z,13.05
2022-10-11T00:10:43.960Z,15.80
2022-10-11T00:13:47.248Z,16.33
2022-10-11T00:16:50.356Z,14.55
2022-10-11T00:19:53.459Z,17.05
2022-10-11T00:22:57.928Z,15.93
2022-10-11T00:26:03.133Z,27.42
2022-10-11T00:29:06.632Z,23.10
2022-10-11T00:32:09.749Z,22.65
2022-10-11T00:35:12.971Z,22.38
2022-10-11T00:38:18.027Z,15.95
2022-10-11T00:41:21.333Z,17.58
2022-10-11T00:44:27.012Z,16.65
2022-10-11T00:47:30.375Z,16.73
2022-10-11T00:50:36.164Z,23.77
2022-10-11T00:53:41.663Z,24.73
2022-10-11T00:56:50.603Z,16.75
2022-10-11T00:59:56.471Z,22.13
2022-10-11T01:03:00.703Z,23.75
2022-10-11T01:06:04.595Z,19.10
2022-10-11T01:09:10.849Z,23.25
2022-10-11T01:12:17.891Z,23.17
2022-10-11T01:15:27.062Z,24.60
2022-10-11T01:18:36.507Z,16.38
2022-10-11T01:21:49.058Z,20.10
2022-10-11T01:25:15.845Z,22.33
2022-10-11T01:28:34.397Z,27.33
2022-10-11T01:31:46.027Z,23.40
2022-10-11T01:34:56.899Z,17.23
2022-10-11T01:38:03.771Z,19.20
2022-10-11T01:41:12.146Z,20.45
2022-10-11T01:44:15.733Z,20.98
2022-10-11T01:47:22.586Z,28.02
2022-10-11T01:50:38.467Z,27.05
2022-10-11T01:53:56.759Z,22.40
2022-10-11T01:57:19.716Z,28.85
2022-10-11T02:00:25.708Z,24.13
2022-10-11T02:03:40.611Z,32.88
2022-10-11T02:06:52.657Z,31.08
2022-10-11T02:10:02.716Z,23.98
2022-10-11T02:13:10.300Z,22.63
2022-10-11T02:16:18.983Z,18.95
2022-10-11T02:19:33.828Z,19.13
2022-10-11T02:22:39.874Z,22.50
2022-10-11T02:25:45.262Z,19.17
2022-10-11T02:28:50.905Z,18.52
2022-10-11T02:31:56.684Z,21.98
2022-10-11T02:35:03.137Z,17.88
2022-10-11T02:38:15.171Z,23.13
2022-10-11T02:41:26.504Z,24.42
2022-10-11T02:44:33.981Z,30.85
2022-10-11T02:47:37.724Z,24.83
2022-10-11T02:50:44.371Z,23.23
2022-10-11T02:53:47.499Z,18.75
2022-10-11T02:56:50.799Z,17.95
2022-10-11T02:59:53.937Z,27.13
2022-10-11T03:02:57.225Z,26.30
2022-10-11T03:06:03.197Z,28.73
2022-10-11T03:09:07.725Z,21.45
2022-10-11T03:12:10.878Z,34.65
2022-10-11T03:15:16.191Z,24.63
2022-10-11T03:18:19.450Z,41.33
2022-10-11T03:21:25.100Z,30.05
2022-10-11T03:24:28.400Z,23.73
2022-10-11T03:27:31.590Z,32.20
2022-10-11T03:34:34.025Z,30.52
2022-10-11T03:37:37.191Z,18.27
2022-10-11T03:40:40.887Z,25.98
2022-10-11T03:43:43.998Z,23.80
2022-10-11T03:46:47.144Z,26.60
2022-10-11T03:49:51.728Z,20.25
2022-10-11T03:52:54.824Z,23.25
2022-10-11T03:55:58.151Z,24.42
2022-10-11T03:59:02.314Z,26.55
2022-10-11T04:02:05.520Z,23.60
2022-10-11T04:05:27.600Z,22.42
2022-10-11T04:08:30.790Z,28.00
2022-10-11T04:11:33.977Z,30.52
2022-10-11T04:14:37.354Z,29.73
2022-10-11T04:17:41.166Z,23.42
2022-10-11T04:20:45.675Z,29.45
2022-10-11T04:23:49.013Z,28.90
2022-10-11T04:26:52.158Z,20.63
2022-10-11T04:29:55.387Z,26.20
2022-10-11T04:32:58.520Z,42.17
2022-10-11T04:36:03.406Z,37.33
2022-10-11T04:39:07.742Z,29.25
2022-10-11T04:42:10.873Z,27.33
2022-10-11T04:45:14.027Z,39.55
2022-10-11T04:48:17.169Z,32.20
2022-10-11T04:51:22.353Z,35.20
2022-10-11T04:54:25.863Z,40.88
2022-10-11T04:57:29.032Z,31.35
2022-10-11T05:00:32.165Z,36.25
2022-10-11T05:03:35.392Z,34.30
2022-10-11T05:06:40.183Z,38.67
2022-10-11T05:09:43.251Z,30.13
2022-10-11T05:12:46.364Z,38.63
2022-10-11T05:15:49.815Z,35.38
2022-10-11T05:18:52.921Z,37.47
2022-10-11T05:21:57.464Z,29.85
2022-10-11T05:25:00.566Z,31.17
2022-10-11T05:28:03.718Z,31.88
2022-10-11T05:31:07.094Z,49.13
2022-10-11T05:34:10.337Z,46.58
2022-10-11T05:37:14.965Z,40.47
2022-10-11T05:40:18.129Z,47.38
2022-10-11T05:43:21.548Z,48.97
2022-10-11T05:46:24.650Z,38.50
2022-10-11T05:49:27.939Z,44.20
2022-10-11T05:52:35.612Z,32.30
2022-10-11T05:55:39.787Z,36.88
2022-10-11T05:58:43.117Z,36.72
2022-10-11T06:01:46.351Z,50.92
2022-10-11T06:04:49.487Z,39.03
2022-10-11T06:07:54.336Z,37.90
2022-10-11T06:10:58.292Z,34.17
2022-10-11T06:14:01.467Z,50.28
2022-10-11T06:17:04.618Z,38.40
2022-10-11T06:20:08.886Z,37.13
2022-10-11T06:23:13.512Z,40.42
2022-10-11T06:26:16.746Z,37.47
2022-10-11T06:29:20.012Z,37.63
2022-10-11T06:32:23.268Z,35.80
2022-10-11T06:35:26.672Z,42.25
2022-10-11T06:38:31.242Z,39.08
2022-10-11T06:41:34.435Z,39.47
2022-10-11T06:44:38.068Z,46.33
2022-10-11T06:47:41.181Z,43.80
2022-10-11T06:51:00.649Z,41.58
2022-10-11T06:54:05.730Z,39.45
2022-10-11T06:57:08.851Z,31.67
2022-10-11T07:00:13.408Z,35.30
2022-10-11T07:03:21.011Z,37.92
2022-10-11T07:06:26.864Z,38.63
2022-10-11T07:09:32.861Z,41.65
2022-10-11T07:12:36.259Z,33.20
2022-10-11T07:15:41.171Z,39.85
2022-10-11T07:18:44.552Z,40.63
2022-10-11T07:21:47.747Z,40.88
2022-10-11T07:24:52.589Z,32.33
2022-10-11T07:27:55.924Z,33.40
2022-10-11T07:30:59.552Z,34.55
2022-10-11T07:34:03.067Z,34.25
2022-10-11T07:37:06.317Z,34.88
2022-10-11T07:40:11.743Z,33.42
2022-10-11T07:43:15.603Z,31.92
2022-10-11T07:46:19.652Z,33.00
2022-10-11T07:49:22.871Z,35.33
2022-10-11T07:52:26.349Z,28.58
2022-10-11T07:55:31.713Z,31.13
2022-10-11T07:58:35.167Z,35.92
2022-10-11T08:01:38.646Z,29.15
2022-10-11T08:04:42.091Z,29.10
2022-10-11T08:07:45.314Z,32.13
2022-10-11T08:10:49.921Z,24.98
2022-10-11T08:13:53.623Z,24.50
2022-10-11T08:16:56.919Z,25.38
2022-10-11T08:20:00.127Z,29.25
2022-10-11T08:23:03.354Z,28.67
2022-10-11T08:26:08.927Z,21.17
2022-10-11T08:29:12.477Z,27.05
2022-10-11T08:32:15.899Z,23.15
2022-10-11T08:35:19.153Z,26.98
2022-10-11T08:38:22.663Z,24.15
2022-10-11T08:41:32.653Z,26.27
2022-10-11T08:45:09.662Z,21.17
2022-10-11T08:48:14.443Z,22.20
2022-10-11T08:51:24.266Z,24.45
2022-10-11T08:54:36.674Z,21.02
2022-10-11T08:57:42.829Z,20.75
2022-10-11T09:00:49.406Z,22.83
2022-10-11T09:03:53.533Z,27.00
2022-10-11T09:07:05.196Z,22.88
2022-10-11T09:10:26.485Z,22.02
2022-10-11T09:14:02.954Z,22.08
2022-10-11T09:17:18.684Z,19.88
2022-10-11T09:20:34.268Z,15.15
2022-10-11T09:24:01.897Z,18.13
2022-10-11T09:27:15.513Z,17.75
2022-10-11T09:30:21.520Z,11.70
2022-10-11T09:34:35.318Z,19.60
2022-10-11T09:37:45.125Z,17.20
2022-10-11T09:41:00.038Z,13.73
2022-10-11T09:44:03.156Z,13.27
2022-10-11T09:47:07.417Z,14.18
2022-10-11T09:50:16.996Z,10.40
2022-10-11T09:53:21.835Z,15.90
2022-10-11T09:56:27.091Z,11.20
2022-10-11T09:59:34.427Z,11.05
2022-10-11T10:02:43.227Z,13.68
2022-10-11T10:06:09.260Z,12.05
2022-10-11T10:09:30.391Z,14.75
2022-10-11T10:12:33.690Z,15.43
2022-10-11T10:15:38.544Z,11.57
2022-10-11T10:18:50.284Z,14.48
2022-10-11T10:21:57.063Z,12.98
2022-10-11T10:25:02.854Z,13.45
2022-10-11T10:28:18.983Z,13.38
2022-10-11T10:31:24.016Z,10.68
2022-10-11T10:34:31.116Z,12.77
2022-10-11T10:37:39.905Z,13.00
2022-10-11T10:40:46.481Z,14.32
2022-10-11T10:43:53.809Z,15.18
2022-10-11T10:47:07.423Z,13.65
2022-10-11T10:50:18.920Z,13.93
2022-10-11T10:53:28.604Z,14.90
2022-10-11T10:56:39.580Z,15.07
2022-10-11T11:00:02.856Z,16.25
2022-10-11T11:03:12.228Z,12.63
2022-10-11T11:06:27.446Z,10.20
2022-10-11T11:09:50.704Z,10.02
2022-10-11T11:13:05.136Z,14.48
2022-10-11T11:16:15.523Z,13.02
2022-10-11T11:19:31.174Z,10.35
2022-10-11T11:22:44.543Z,12.10
2022-10-11T11:25:57.581Z,11.55
2022-10-11T11:29:12.482Z,13.85
2022-10-11T11:32:23.927Z,11.75
2022-10-11T11:35:32.073Z,10.77
2022-10-11T11:38:43.853Z,9.13
2022-10-11T11:41:54.780Z,7.93
2022-10-11T11:45:03.213Z,12.00
2022-10-11T11:48:11.961Z,10.07
2022-10-11T11:51:19.096Z,15.35
2022-10-11T11:54:31.416Z,15.73
2022-10-11T11:57:50.079Z,12.05
2022-10-11T12:01:02.926Z,21.58
2022-10-11T12:04:13.605Z,17.58
2022-10-11T12:07:19.261Z,12.75
2022-10-11T12:10:33.145Z,13.27
2022-10-11T12:13:39.183Z,12.27
2022-10-11T12:17:17.641Z,12.07
2022-10-11T12:20:25.329Z,7.28
2022-10-11T12:23:49.318Z,9.27
2022-10-11T12:26:56.489Z,13.75
2022-10-11T12:30:01.121Z,13.32
2022-10-11T12:33:07.881Z,14.82
2022-10-11T12:36:33.077Z,12.82
2022-10-11T12:39:51.308Z,14.45
2022-10-11T12:43:10.958Z,15.85
2022-10-11T12:47:00.245Z,10.18
2022-10-11T12:50:19.762Z,14.88
2022-10-11T12:53:39.373Z,9.13
2022-10-11T12:56:49.519Z,12.15
2022-10-11T12:59:52.840Z,13.27
2022-10-11T13:02:58.675Z,11.93
2022-10-11T13:06:12.390Z,12.65
2022-10-11T13:09:24.076Z,14.98
2022-10-11T13:12:29.996Z,10.32
2022-10-11T13:15:33.982Z,13.23
2022-10-11T13:18:43.416Z,11.18
2022-10-11T13:21:51.923Z,14.93
2022-10-11T13:24:57.616Z,18.52
2022-10-11T13:28:00.833Z,10.50
2022-10-11T13:31:05.704Z,10.02
2022-10-11T13:34:13.639Z,13.43
2022-10-11T13:37:18.995Z,10.60
2022-10-11T13:40:23.154Z,10.88
2022-10-11T13:43:29.088Z,9.27
2022-10-11T13:46:34.322Z,14.65
2022-10-11T13:49:40.128Z,8.45
2022-10-11T13:52:56.503Z,8.07
2022-10-11T13:56:01.819Z,9.43
2022-10-11T13:59:05.643Z,8.73
2022-10-11T14:02:19.441Z,10.68
2022-10-11T14:05:31.384Z,9.98
2022-10-11T14:08:39.048Z,13.55
2022-10-11T14:11:42.209Z,15.80
2022-10-11T14:14:48.650Z,9.73
2022-10-11T14:17:52.248Z,15.45
2022-10-11T14:20:57.011Z,8.70
2022-10-11T14:24:02.523Z,10.93
2022-10-11T14:27:07.273Z,12.70
2022-10-11T14:30:31.991Z,14.88
2022-10-11T14:33:35.918Z,11.75
2022-10-11T14:36:40.426Z,11.77
2022-10-11T14:39:44.250Z,10.25
2022-10-11T14:42:47.422Z,12.10
2022-10-11T14:45:50.645Z,8.15
2022-10-11T14:48:56.355Z,12.98
2022-10-11T14:52:01.520Z,11.65
2022-10-11T14:55:05.286Z,9.65
2022-10-11T14:58:10.388Z,8.15
2022-10-11T15:01:15.610Z,8.65
2022-10-11T15:04:18.933Z,8.80
2022-10-11T15:07:23.423Z,10.32
2022-10-11T15:10:28.847Z,11.65
2022-10-11T15:13:31.942Z,11.77
2022-10-11T15:16:35.992Z,7.65
2022-10-11T15:19:39.197Z,12.75
2022-10-11T15:22:43.809Z,15.15
2022-10-11T15:25:46.938Z,11.80
2022-10-11T15:28:50.903Z,9.45
2022-10-11T15:34:33.715Z,7.45
2022-10-11T15:37:37.556Z,9.25
2022-10-11T15:40:41.684Z,11.27
2022-10-11T15:43:46.005Z,11.70
2022-10-11T15:46:49.193Z,10.15
2022-10-11T15:49:53.692Z,14.85
2022-10-11T15:53:00.829Z,10.00
2022-10-11T15:56:08.368Z,10.95
2022-10-11T15:59:12.784Z,9.82
2022-10-11T16:02:16.311Z,9.35
2022-10-11T16:05:21.730Z,12.20
2022-10-11T16:08:25.111Z,9.40
2022-10-11T16:11:28.609Z,10.90
2022-10-11T16:14:31.725Z,13.23
2022-10-11T16:17:35.176Z,15.68
2022-10-11T16:20:40.263Z,15.05
2022-10-11T16:23:44.034Z,16.33
2022-10-11T16:26:47.132Z,15.07
2022-10-11T16:29:50.359Z,13.77
2022-10-11T16:32:53.748Z,16.23
2022-10-11T16:36:18.299Z,20.52
2022-10-11T16:39:42.901Z,15.70
2022-10-11T16:42:46.990Z,15.05
2022-10-11T16:45:57.516Z,16.20
2022-10-11T16:49:00.935Z,17.48
2022-10-11T16:52:05.634Z,19.83
2022-10-11T16:55:09.594Z,15.70
2022-10-11T16:58:12.684Z,28.02
2022-10-11T17:01:15.822Z,155.63
2022-10-11T17:04:19.150Z,81.72
2022-10-11T17:07:24.147Z,49.88
2022-10-11T17:10:39.268Z,14.77
2022-10-11T17:13:43.237Z,13.98
2022-10-11T17:16:46.714Z,16.67
2022-10-11T17:19:50.105Z,13.65
2022-10-11T17:22:55.151Z,15.63
2022-10-11T17:25:58.688Z,17.88
2022-10-11T17:29:02.248Z,17.48
2022-10-11T17:32:05.821Z,17.27
2022-10-11T17:35:09.338Z,15.75
2022-10-11T17:38:13.824Z,13.52
2022-10-11T17:41:17.156Z,15.05
2022-10-11T17:44:21.667Z,11.65
2022-10-11T17:47:24.886Z,18.52
2022-10-11T17:50:28.036Z,13.13
2022-10-11T17:53:32.581Z,19.52
2022-10-11T17:56:38.216Z,14.73
2022-10-11T17:59:41.792Z,18.65
2022-10-11T18:02:44.922Z,14.45
2022-10-11T18:05:48.625Z,17.63
2022-10-11T18:08:53.194Z,13.90
2022-10-11T18:11:56.272Z,15.38
2022-10-11T18:14:59.414Z,20.52
2022-10-11T18:18:04.822Z,20.45
2022-10-11T18:21:08.152Z,18.67
2022-10-11T18:24:15.966Z,13.63
2022-10-11T18:27:19.164Z,13.98
2022-10-11T18:30:22.295Z,17.58
2022-10-11T18:33:25.575Z,18.60
2022-10-11T18:36:31.550Z,12.63
2022-10-11T18:39:36.273Z,19.52
2022-10-11T18:42:39.612Z,16.90
2022-10-11T18:45:42.736Z,10.60
2022-10-11T18:48:47.576Z,17.90
2022-10-11T18:51:50.747Z,20.65
2022-10-11T18:54:55.482Z,37.03
2022-10-11T18:57:59.007Z,20.83
2022-10-11T19:01:05.639Z,16.98
2022-10-11T19:04:10.164Z,15.48
2022-10-11T19:07:13.417Z,15.00
2022-10-11T19:10:17.967Z,14.18
2022-10-11T19:13:21.077Z,22.52
2022-10-11T19:16:24.603Z,21.08
2022-10-11T19:19:29.378Z,18.10
2022-10-11T19:22:32.720Z,15.07
2022-10-11T19:25:37.721Z,12.73
2022-10-11T19:28:41.147Z,17.25
2022-10-11T19:31:46.067Z,11.98
2022-10-11T19:34:49.447Z,17.70
2022-10-11T19:37:54.897Z,13.50
2022-10-11T19:41:01.039Z,15.20
2022-10-11T19:44:04.651Z,11.45
2022-10-11T19:47:07.919Z,15.05
2022-10-11T19:50:11.232Z,11.43
2022-10-11T19:53:14.531Z,15.43
2022-10-11T19:56:20.132Z,16.80
2022-10-11T19:59:23.334Z,10.82
2022-10-11T20:02:26.518Z,13.25
2022-10-11T20:05:29.640Z,13.65
2022-10-11T20:08:33.714Z,14.30
2022-10-11T20:11:38.751Z,13.65
2022-10-11T20:14:41.812Z,16.77
2022-10-11T20:17:51.635Z,15.02
2022-10-11T20:20:56.325Z,14.27
2022-10-11T20:24:00.995Z,23.83
2022-10-11T20:27:07.787Z,12.82
2022-10-11T20:30:13.927Z,14.20
2022-10-11T20:33:17.261Z,16.98
2022-10-11T20:36:22.229Z,14.73
2022-10-11T20:39:25.569Z,14.32
2022-10-11T20:42:30.290Z,16.27
2022-10-11T20:45:33.520Z,23.42
2022-10-11T20:48:38.296Z,17.23
2022-10-11T20:51:42.819Z,21.63
2022-10-11T20:54:45.950Z,25.08
2022-10-11T20:57:50.602Z,22.83
2022-10-11T21:00:53.804Z,24.20
2022-10-11T21:03:58.752Z,18.65
2022-10-11T21:07:02.004Z,19.75
2022-10-11T21:10:05.694Z,20.08
2022-10-11T21:13:10.350Z,18.23
2022-10-11T21:16:15.774Z,21.73
2022-10-11T21:19:19.049Z,21.30
2022-10-11T21:22:22.420Z,14.85
2022-10-11T21:25:25.970Z,13.05
2022-10-11T21:28:30.533Z,14.45
2022-10-11T21:34:33.446Z,20.08
2022-10-11T21:37:36.992Z,16.83
2022-10-11T21:40:40.723Z,13.55
2022-10-11T21:43:43.970Z,16.13
2022-10-11T21:47:06.076Z,16.08
2022-10-11T21:50:11.784Z,18.33
2022-10-11T21:53:14.998Z,18.40
2022-10-11T21:56:18.390Z,18.85
2022-10-11T21:59:21.569Z,18.30
2022-10-11T22:02:24.647Z,18.45
2022-10-11T22:05:29.151Z,17.90
2022-10-11T22:08:32.681Z,25.20
2022-10-11T22:11:35.827Z,20.27
2022-10-11T22:14:39.084Z,16.27
2022-10-11T22:17:42.217Z,14.52
2022-10-11T22:20:47.024Z,18.23
2022-10-11T22:23:51.772Z,19.40
2022-10-11T22:26:54.855Z,20.85
2022-10-11T22:29:57.994Z,17.92
2022-10-11T22:33:01.334Z,16.20
2022-10-11T22:36:08.857Z,20.17
2022-10-11T22:39:12.127Z,17.40
2022-10-11T22:42:15.329Z,25.10
2022-10-11T22:45:18.471Z,18.08
2022-10-11T22:48:21.596Z,18.85
2022-10-11T22:51:26.182Z,20.35
2022-10-11T22:54:29.341Z,20.60
2022-10-11T22:57:32.499Z,19.10
2022-10-11T23:00:35.707Z,22.58
2022-10-11T23:03:39.083Z,20.95
2022-10-11T23:06:43.712Z,23.02
2022-10-11T23:09:46.807Z,17.35
2022-10-11T23:12:49.937Z,19.40
2022-10-11T23:15:53.208Z,22.23
2022-10-11T23:18:56.721Z,22.77
2022-10-11T23:22:01.239Z,20.88
2022-10-11T23:25:04.622Z,18.20
2022-10-11T23:28:07.988Z,23.85
2022-10-11T23:31:13.212Z,20.13
2022-10-11T23:34:16.499Z,21.15
2022-10-11T23:37:20.999Z,23.13
2022-10-11T23:40:24.464Z,23.02
2022-10-11T23:43:27.753Z,24.88
2022-10-11T23:46:30.892Z,20.60
2022-10-11T23:49:33.961Z,20.95
2022-10-11T23:52:38.722Z,26.95
2022-10-11T23:55:43.296Z,22.50
2022-10-11T23:58:46.683Z,30.33
